sensor_id;sensor_type;location;lat;lon;timestamp;temperature;humidity
31379;DHT22;61664;48.112;11.662;2023-11-18T00:02:15;7.80;94.30
31379;DHT22;61664;48.112;11.662;2023-11-18T00:04:42;7.80;94.30
31379;DHT22;61664;48.112;11.662;2023-11-18T00:07:09;7.90;94.20
31379;DHT22;61664;48.112;11.662;2023-11-18T00:09:36;7.90;94.10
31379;DHT22;61664;48.112;11.662;2023-11-18T00:12:03;7.90;93.90
31379;DHT22;61664;48.112;11.662;2023-11-18T00:14:31;7.90;93.70
31379;DHT22;61664;48.112;11.662;2023-11-18T00:16:57;7.90;93.60
31379;DHT22;61664;48.112;11.662;2023-11-18T00:19:25;7.80;93.60
31379;DHT22;61664;48.112;11.662;2023-11-18T00:21:53;7.80;93.70
31379;DHT22;61664;48.112;11.662;2023-11-18T00:24:20;7.80;93.90
31379;DHT22;61664;48.112;11.662;2023-11-18T00:26:47;7.80;94.00
31379;DHT22;61664;48.112;11.662;2023-11-18T00:29:14;7.80;94.00
31379;DHT22;61664;48.112;11.662;2023-11-18T00:31:41;7.80;93.90
31379;DHT22;61664;48.112;11.662;2023-11-18T00:34:08;7.80;93.90
31379;DHT22;61664;48.112;11.662;2023-11-18T00:36:37;7.80;93.90
31379;DHT22;61664;48.112;11.662;2023-11-18T00:39:04;7.80;94.00
31379;DHT22;61664;48.112;11.662;2023-11-18T00:41:31;7.80;94.00
31379;DHT22;61664;48.112;11.662;2023-11-18T00:43:58;7.80;94.00
31379;DHT22;61664;48.112;11.662;2023-11-18T00:46:25;7.80;94.00
31379;DHT22;61664;48.112;11.662;2023-11-18T00:48:52;7.80;93.90
31379;DHT22;61664;48.112;11.662;2023-11-18T00:51:19;7.80;93.90
31379;DHT22;61664;48.112;11.662;2023-11-18T00:53:45;7.80;93.90
31379;DHT22;61664;48.112;11.662;2023-11-18T00:56:15;7.80;93.90
31379;DHT22;61664;48.112;11.662;2023-11-18T00:58:44;7.80;93.80
31379;DHT22;61664;48.112;11.662;2023-11-18T01:01:11;7.80;93.90
31379;DHT22;61664;48.112;11.662;2023-11-18T01:03:41;7.70;94.00
31379;DHT22;61664;48.112;11.662;2023-11-18T01:06:08;7.70;94.00
31379;DHT22;61664;48.112;11.662;2023-11-18T01:08:35;7.80;93.90
31379;DHT22;61664;48.112;11.662;2023-11-18T01:11:02;7.70;93.90
31379;DHT22;61664;48.112;11.662;2023-11-18T01:13:31;7.80;93.80
31379;DHT22;61664;48.112;11.662;2023-11-18T01:15:57;7.80;93.80
31379;DHT22;61664;48.112;11.662;2023-11-18T01:18:24;7.80;93.80
31379;DHT22;61664;48.112;11.662;2023-11-18T01:20:52;7.80;93.80
31379;DHT22;61664;48.112;11.662;2023-11-18T01:23:19;7.70;93.90
31379;DHT22;61664;48.112;11.662;2023-11-18T01:25:46;7.70;93.90
31379;DHT22;61664;48.112;11.662;2023-11-18T01:28:13;7.70;94.00
31379;DHT22;61664;48.112;11.662;2023-11-18T01:30:42;7.70;94.10
31379;DHT22;61664;48.112;11.662;2023-11-18T01:33:11;7.80;94.20
31379;DHT22;61664;48.112;11.662;2023-11-18T01:35:39;7.70;94.10
31379;DHT22;61664;48.112;11.662;2023-11-18T01:38:06;7.80;94.00
31379;DHT22;61664;48.112;11.662;2023-11-18T01:40:33;7.70;94.00
31379;DHT22;61664;48.112;11.662;2023-11-18T01:43:00;7.80;94.00
31379;DHT22;61664;48.112;11.662;2023-11-18T01:45:27;7.80;94.00
31379;DHT22;61664;48.112;11.662;2023-11-18T01:47:54;7.80;94.10
31379;DHT22;61664;48.112;11.662;2023-11-18T01:50:21;7.80;94.10
31379;DHT22;61664;48.112;11.662;2023-11-18T01:52:48;7.80;94.20
31379;DHT22;61664;48.112;11.662;2023-11-18T01:55:15;7.80;94.20
31379;DHT22;61664;48.112;11.662;2023-11-18T01:57:46;7.80;94.30
31379;DHT22;61664;48.112;11.662;2023-11-18T02:00:14;7.80;94.30
31379;DHT22;61664;48.112;11.662;2023-11-18T02:02:44;7.80;94.10
31379;DHT22;61664;48.112;11.662;2023-11-18T02:05:11;7.90;94.40
31379;DHT22;61664;48.112;11.662;2023-11-18T02:07:39;7.80;93.80
31379;DHT22;61664;48.112;11.662;2023-11-18T02:10:07;7.80;93.80
31379;DHT22;61664;48.112;11.662;2023-11-18T02:15:56;7.80;94.00
31379;DHT22;61664;48.112;11.662;2023-11-18T02:18:24;7.80;94.10
31379;DHT22;61664;48.112;11.662;2023-11-18T02:20:56;7.90;94.50
31379;DHT22;61664;48.112;11.662;2023-11-18T02:23:26;7.90;94.00
31379;DHT22;61664;48.112;11.662;2023-11-18T02:25:54;7.80;94.00
31379;DHT22;61664;48.112;11.662;2023-11-18T02:28:27;7.80;94.00
31379;DHT22;61664;48.112;11.662;2023-11-18T02:31:05;7.80;94.00
31379;DHT22;61664;48.112;11.662;2023-11-18T02:33:56;7.80;94.00
31379;DHT22;61664;48.112;11.662;2023-11-18T02:36:39;7.80;93.90
31379;DHT22;61664;48.112;11.662;2023-11-18T02:39:12;7.80;94.00
31379;DHT22;61664;48.112;11.662;2023-11-18T02:41:47;7.80;93.90
31379;DHT22;61664;48.112;11.662;2023-11-18T02:44:18;7.80;93.90
31379;DHT22;61664;48.112;11.662;2023-11-18T02:46:49;7.80;93.90
31379;DHT22;61664;48.112;11.662;2023-11-18T02:49:17;7.80;94.00
31379;DHT22;61664;48.112;11.662;2023-11-18T02:51:44;7.80;94.10
31379;DHT22;61664;48.112;11.662;2023-11-18T02:54:14;7.80;94.10
31379;DHT22;61664;48.112;11.662;2023-11-18T02:56:43;7.80;94.00
31379;DHT22;61664;48.112;11.662;2023-11-18T02:59:09;7.80;94.10
31379;DHT22;61664;48.112;11.662;2023-11-18T03:01:36;7.90;94.10
31379;DHT22;61664;48.112;11.662;2023-11-18T03:04:08;7.80;94.10
31379;DHT22;61664;48.112;11.662;2023-11-18T03:06:35;7.80;93.90
31379;DHT22;61664;48.112;11.662;2023-11-18T03:09:03;7.80;94.00
31379;DHT22;61664;48.112;11.662;2023-11-18T03:11:34;7.80;94.00
31379;DHT22;61664;48.112;11.662;2023-11-18T03:14:01;7.80;94.10
31379;DHT22;61664;48.112;11.662;2023-11-18T03:16:30;7.80;94.00
31379;DHT22;61664;48.112;11.662;2023-11-18T03:18:57;7.80;93.90
31379;DHT22;61664;48.112;11.662;2023-11-18T03:21:25;7.80;93.90
31379;DHT22;61664;48.112;11.662;2023-11-18T03:23:53;7.90;93.90
31379;DHT22;61664;48.112;11.662;2023-11-18T03:26:20;7.80;93.80
31379;DHT22;61664;48.112;11.662;2023-11-18T03:28:47;7.80;93.90
31379;DHT22;61664;48.112;11.662;2023-11-18T03:31:14;7.80;93.90
31379;DHT22;61664;48.112;11.662;2023-11-18T03:33:42;7.80;94.00
31379;DHT22;61664;48.112;11.662;2023-11-18T03:36:09;7.80;94.00
31379;DHT22;61664;48.112;11.662;2023-11-18T03:38:38;7.80;94.00
31379;DHT22;61664;48.112;11.662;2023-11-18T03:41:06;7.90;93.90
31379;DHT22;61664;48.112;11.662;2023-11-18T03:43:36;7.80;93.90
31379;DHT22;61664;48.112;11.662;2023-11-18T03:46:04;7.80;93.90
31379;DHT22;61664;48.112;11.662;2023-11-18T03:48:31;7.80;94.00
31379;DHT22;61664;48.112;11.662;2023-11-18T03:50:58;7.80;94.00
31379;DHT22;61664;48.112;11.662;2023-11-18T03:53:27;7.80;93.90
31379;DHT22;61664;48.112;11.662;2023-11-18T03:55:54;7.80;93.90
31379;DHT22;61664;48.112;11.662;2023-11-18T03:58:21;7.80;93.90
31379;DHT22;61664;48.112;11.662;2023-11-18T04:00:47;7.80;94.00
31379;DHT22;61664;48.112;11.662;2023-11-18T04:03:14;7.80;94.00
31379;DHT22;61664;48.112;11.662;2023-11-18T04:05:41;7.80;94.10
31379;DHT22;61664;48.112;11.662;2023-11-18T04:08:09;7.80;94.00
31379;DHT22;61664;48.112;11.662;2023-11-18T04:10:39;7.90;94.00
31379;DHT22;61664;48.112;11.662;2023-11-18T04:13:06;7.90;93.90
31379;DHT22;61664;48.112;11.662;2023-11-18T04:15:33;7.90;93.80
31379;DHT22;61664;48.112;11.662;2023-11-18T04:18:01;7.80;93.80
31379;DHT22;61664;48.112;11.662;2023-11-18T04:20:29;7.80;93.90
31379;DHT22;61664;48.112;11.662;2023-11-18T04:22:56;7.90;94.00
31379;DHT22;61664;48.112;11.662;2023-11-18T04:25:23;7.80;93.90
31379;DHT22;61664;48.112;11.662;2023-11-18T04:27:51;7.80;93.90
31379;DHT22;61664;48.112;11.662;2023-11-18T04:30:18;7.80;93.90
31379;DHT22;61664;48.112;11.662;2023-11-18T04:32:45;7.80;93.80
31379;DHT22;61664;48.112;11.662;2023-11-18T04:35:12;7.80;93.90
31379;DHT22;61664;48.112;11.662;2023-11-18T04:37:43;7.70;94.00
31379;DHT22;61664;48.112;11.662;2023-11-18T04:40:12;7.80;94.00
31379;DHT22;61664;48.112;11.662;2023-11-18T04:42:39;7.80;94.00
31379;DHT22;61664;48.112;11.662;2023-11-18T04:45:07;7.80;93.90
31379;DHT22;61664;48.112;11.662;2023-11-18T04:47:37;7.80;94.00
31379;DHT22;61664;48.112;11.662;2023-11-18T04:50:05;7.80;94.00
31379;DHT22;61664;48.112;11.662;2023-11-18T04:52:32;7.80;94.10
31379;DHT22;61664;48.112;11.662;2023-11-18T04:55:02;7.80;94.10
31379;DHT22;61664;48.112;11.662;2023-11-18T04:57:32;7.90;94.10
31379;DHT22;61664;48.112;11.662;2023-11-18T05:00:03;7.80;94.00
31379;DHT22;61664;48.112;11.662;2023-11-18T05:02:38;7.80;94.00
31379;DHT22;61664;48.112;11.662;2023-11-18T05:05:06;7.80;94.00
31379;DHT22;61664;48.112;11.662;2023-11-18T05:07:34;7.90;93.90
31379;DHT22;61664;48.112;11.662;2023-11-18T05:10:02;7.80;93.80
31379;DHT22;61664;48.112;11.662;2023-11-18T05:12:34;7.80;94.10
31379;DHT22;61664;48.112;11.662;2023-11-18T05:15:01;7.80;93.90
31379;DHT22;61664;48.112;11.662;2023-11-18T05:17:37;7.90;93.90
31379;DHT22;61664;48.112;11.662;2023-11-18T05:20:06;7.90;93.90
31379;DHT22;61664;48.112;11.662;2023-11-18T05:22:35;7.90;93.90
31379;DHT22;61664;48.112;11.662;2023-11-18T05:25:05;7.80;93.80
31379;DHT22;61664;48.112;11.662;2023-11-18T05:27:34;7.80;93.90
31379;DHT22;61664;48.112;11.662;2023-11-18T05:30:00;7.80;93.80
31379;DHT22;61664;48.112;11.662;2023-11-18T05:32:28;7.80;93.80
31379;DHT22;61664;48.112;11.662;2023-11-18T05:34:58;7.90;93.80
31379;DHT22;61664;48.112;11.662;2023-11-18T05:37:25;7.90;93.80
31379;DHT22;61664;48.112;11.662;2023-11-18T05:39:54;7.80;93.80
31379;DHT22;61664;48.112;11.662;2023-11-18T05:42:36;7.80;93.80
31379;DHT22;61664;48.112;11.662;2023-11-18T05:45:06;7.80;93.70
31379;DHT22;61664;48.112;11.662;2023-11-18T05:47:34;7.80;93.70
31379;DHT22;61664;48.112;11.662;2023-11-18T05:50:01;7.80;93.70
31379;DHT22;61664;48.112;11.662;2023-11-18T05:52:28;7.80;93.80
31379;DHT22;61664;48.112;11.662;2023-11-18T05:54:55;7.80;94.00
31379;DHT22;61664;48.112;11.662;2023-11-18T05:57:22;7.80;94.00
31379;DHT22;61664;48.112;11.662;2023-11-18T05:59:50;7.80;93.90
31379;DHT22;61664;48.112;11.662;2023-11-18T06:02:17;7.80;93.80
31379;DHT22;61664;48.112;11.662;2023-11-18T06:04:47;7.90;93.80
31379;DHT22;61664;48.112;11.662;2023-11-18T06:07:14;7.80;93.80
31379;DHT22;61664;48.112;11.662;2023-11-18T06:09:41;7.90;93.80
31379;DHT22;61664;48.112;11.662;2023-11-18T06:12:12;7.80;93.90
31379;DHT22;61664;48.112;11.662;2023-11-18T06:14:39;7.80;93.90
31379;DHT22;61664;48.112;11.662;2023-11-18T06:17:11;7.90;93.70
31379;DHT22;61664;48.112;11.662;2023-11-18T06:19:40;7.90;93.60
31379;DHT22;61664;48.112;11.662;2023-11-18T06:22:06;7.80;93.60
31379;DHT22;61664;48.112;11.662;2023-11-18T06:24:33;7.80;93.70
31379;DHT22;61664;48.112;11.662;2023-11-18T06:27:00;7.80;93.70
31379;DHT22;61664;48.112;11.662;2023-11-18T06:29:27;7.70;93.70
31379;DHT22;61664;48.112;11.662;2023-11-18T06:31:57;7.80;93.80
31379;DHT22;61664;48.112;11.662;2023-11-18T06:34:24;7.80;93.80
31379;DHT22;61664;48.112;11.662;2023-11-18T06:36:53;7.80;94.00
31379;DHT22;61664;48.112;11.662;2023-11-18T06:39:20;7.80;93.80
31379;DHT22;61664;48.112;11.662;2023-11-18T06:41:52;7.90;93.80
31379;DHT22;61664;48.112;11.662;2023-11-18T06:44:20;7.80;93.90
31379;DHT22;61664;48.112;11.662;2023-11-18T06:46:50;7.80;93.90
31379;DHT22;61664;48.112;11.662;2023-11-18T06:49:17;7.90;93.90
31379;DHT22;61664;48.112;11.662;2023-11-18T06:51:45;7.90;94.00
31379;DHT22;61664;48.112;11.662;2023-11-18T06:54:12;7.90;94.00
31379;DHT22;61664;48.112;11.662;2023-11-18T06:56:41;7.90;93.90
31379;DHT22;61664;48.112;11.662;2023-11-18T06:59:10;7.90;93.90
31379;DHT22;61664;48.112;11.662;2023-11-18T07:01:40;7.90;93.90
31379;DHT22;61664;48.112;11.662;2023-11-18T07:04:16;7.90;94.00
31379;DHT22;61664;48.112;11.662;2023-11-18T07:06:43;7.90;93.90
31379;DHT22;61664;48.112;11.662;2023-11-18T07:09:11;8.00;94.00
31379;DHT22;61664;48.112;11.662;2023-11-18T07:11:48;7.90;94.00
31379;DHT22;61664;48.112;11.662;2023-11-18T07:14:15;8.00;94.10
31379;DHT22;61664;48.112;11.662;2023-11-18T07:16:43;8.00;94.00
31379;DHT22;61664;48.112;11.662;2023-11-18T07:19:11;8.00;94.10
31379;DHT22;61664;48.112;11.662;2023-11-18T07:21:47;7.90;94.10
31379;DHT22;61664;48.112;11.662;2023-11-18T07:24:15;8.00;94.00
31379;DHT22;61664;48.112;11.662;2023-11-18T07:26:44;7.90;94.00
31379;DHT22;61664;48.112;11.662;2023-11-18T07:29:12;8.10;94.20
31379;DHT22;61664;48.112;11.662;2023-11-18T07:31:39;8.10;94.10
31379;DHT22;61664;48.112;11.662;2023-11-18T07:34:06;8.10;94.20
31379;DHT22;61664;48.112;11.662;2023-11-18T07:36:33;8.10;94.30
31379;DHT22;61664;48.112;11.662;2023-11-18T07:39:00;8.10;94.40
31379;DHT22;61664;48.112;11.662;2023-11-18T07:41:31;8.20;94.40
31379;DHT22;61664;48.112;11.662;2023-11-18T07:43:59;8.20;94.20
31379;DHT22;61664;48.112;11.662;2023-11-18T07:46:27;8.20;94.20
31379;DHT22;61664;48.112;11.662;2023-11-18T07:48:58;8.20;94.10
31379;DHT22;61664;48.112;11.662;2023-11-18T07:51:26;8.30;94.10
31379;DHT22;61664;48.112;11.662;2023-11-18T07:53:53;8.30;93.90
31379;DHT22;61664;48.112;11.662;2023-11-18T07:56:20;8.20;94.00
31379;DHT22;61664;48.112;11.662;2023-11-18T07:58:50;8.30;94.20
31379;DHT22;61664;48.112;11.662;2023-11-18T08:01:18;8.30;94.40
31379;DHT22;61664;48.112;11.662;2023-11-18T08:03:48;8.30;94.50
31379;DHT22;61664;48.112;11.662;2023-11-18T08:06:17;8.40;94.50
31379;DHT22;61664;48.112;11.662;2023-11-18T08:08:47;8.40;94.70
31379;DHT22;61664;48.112;11.662;2023-11-18T08:11:15;8.40;94.90
31379;DHT22;61664;48.112;11.662;2023-11-18T08:13:42;8.50;94.90
31379;DHT22;61664;48.112;11.662;2023-11-18T08:16:12;8.60;94.90
31379;DHT22;61664;48.112;11.662;2023-11-18T08:18:41;8.60;94.90
31379;DHT22;61664;48.112;11.662;2023-11-18T08:21:08;8.60;95.00
31379;DHT22;61664;48.112;11.662;2023-11-18T08:23:35;8.70;94.80
31379;DHT22;61664;48.112;11.662;2023-11-18T08:26:02;8.70;94.60
31379;DHT22;61664;48.112;11.662;2023-11-18T08:28:32;8.70;94.50
31379;DHT22;61664;48.112;11.662;2023-11-18T08:30:59;8.90;94.80
31379;DHT22;61664;48.112;11.662;2023-11-18T08:33:27;8.80;94.90
31379;DHT22;61664;48.112;11.662;2023-11-18T08:35:55;8.90;94.90
31379;DHT22;61664;48.112;11.662;2023-11-18T08:38:23;8.90;94.70
31379;DHT22;61664;48.112;11.662;2023-11-18T08:40:51;8.90;94.40
31379;DHT22;61664;48.112;11.662;2023-11-18T08:43:18;8.90;94.10
31379;DHT22;61664;48.112;11.662;2023-11-18T08:45:46;9.00;94.10
31379;DHT22;61664;48.112;11.662;2023-11-18T08:48:14;9.00;94.10
31379;DHT22;61664;48.112;11.662;2023-11-18T08:50:42;9.00;94.20
31379;DHT22;61664;48.112;11.662;2023-11-18T08:53:10;9.00;94.30
31379;DHT22;61664;48.112;11.662;2023-11-18T08:55:38;9.00;94.40
31379;DHT22;61664;48.112;11.662;2023-11-18T08:58:09;9.00;94.50
31379;DHT22;61664;48.112;11.662;2023-11-18T09:00:53;9.10;94.50
31379;DHT22;61664;48.112;11.662;2023-11-18T09:03:25;9.10;94.30
31379;DHT22;61664;48.112;11.662;2023-11-18T09:05:59;9.10;94.50
31379;DHT22;61664;48.112;11.662;2023-11-18T09:11:07;9.20;94.50
31379;DHT22;61664;48.112;11.662;2023-11-18T09:13:37;9.30;94.30
31379;DHT22;61664;48.112;11.662;2023-11-18T09:16:06;9.30;94.40
31379;DHT22;61664;48.112;11.662;2023-11-18T09:18:41;9.30;94.30
31379;DHT22;61664;48.112;11.662;2023-11-18T09:21:12;9.30;93.90
31379;DHT22;61664;48.112;11.662;2023-11-18T09:23:46;9.30;94.10
31379;DHT22;61664;48.112;11.662;2023-11-18T09:26:16;9.40;94.10
31379;DHT22;61664;48.112;11.662;2023-11-18T09:28:43;9.40;94.10
31379;DHT22;61664;48.112;11.662;2023-11-18T09:31:16;9.40;94.10
31379;DHT22;61664;48.112;11.662;2023-11-18T09:33:45;9.40;94.20
31379;DHT22;61664;48.112;11.662;2023-11-18T09:36:22;9.50;94.50
31379;DHT22;61664;48.112;11.662;2023-11-18T09:38:53;9.60;95.00
31379;DHT22;61664;48.112;11.662;2023-11-18T09:41:23;9.60;94.80
31379;DHT22;61664;48.112;11.662;2023-11-18T09:43:54;9.70;94.80
31379;DHT22;61664;48.112;11.662;2023-11-18T09:46:26;9.80;95.20
31379;DHT22;61664;48.112;11.662;2023-11-18T09:49:40;9.90;95.30
31379;DHT22;61664;48.112;11.662;2023-11-18T09:52:16;10.10;93.40
31379;DHT22;61664;48.112;11.662;2023-11-18T09:57:39;10.40;96.10
31379;DHT22;61664;48.112;11.662;2023-11-18T10:00:12;10.70;94.30
31379;DHT22;61664;48.112;11.662;2023-11-18T10:02:59;10.80;94.50
31379;DHT22;61664;48.112;11.662;2023-11-18T10:05:29;10.90;94.20
31379;DHT22;61664;48.112;11.662;2023-11-18T10:07:57;10.90;93.60
31379;DHT22;61664;48.112;11.662;2023-11-18T10:10:25;10.90;93.60
31379;DHT22;61664;48.112;11.662;2023-11-18T10:13:03;10.90;93.70
31379;DHT22;61664;48.112;11.662;2023-11-18T10:15:45;10.90;93.60
31379;DHT22;61664;48.112;11.662;2023-11-18T10:18:17;11.00;93.50
31379;DHT22;61664;48.112;11.662;2023-11-18T10:20:52;11.00;92.90
31379;DHT22;61664;48.112;11.662;2023-11-18T10:23:21;11.00;92.70
31379;DHT22;61664;48.112;11.662;2023-11-18T10:25:54;11.00;93.00
31379;DHT22;61664;48.112;11.662;2023-11-18T10:31:05;11.20;93.60
31379;DHT22;61664;48.112;11.662;2023-11-18T10:33:35;11.20;93.80
31379;DHT22;61664;48.112;11.662;2023-11-18T10:36:22;11.30;93.30
31379;DHT22;61664;48.112;11.662;2023-11-18T10:38:51;11.30;90.80
31379;DHT22;61664;48.112;11.662;2023-11-18T10:41:22;11.30;93.10
31379;DHT22;61664;48.112;11.662;2023-11-18T10:44:08;11.40;93.00
31379;DHT22;61664;48.112;11.662;2023-11-18T10:46:36;11.40;90.90
31379;DHT22;61664;48.112;11.662;2023-11-18T10:49:03;11.40;93.50
31379;DHT22;61664;48.112;11.662;2023-11-18T10:51:36;11.40;93.90
31379;DHT22;61664;48.112;11.662;2023-11-18T10:54:07;11.50;93.60
31379;DHT22;61664;48.112;11.662;2023-11-18T10:56:46;11.50;93.30
31379;DHT22;61664;48.112;11.662;2023-11-18T10:59:15;11.60;91.60
31379;DHT22;61664;48.112;11.662;2023-11-18T11:01:45;11.50;92.50
31379;DHT22;61664;48.112;11.662;2023-11-18T11:04:16;11.50;92.00
31379;DHT22;61664;48.112;11.662;2023-11-18T11:06:48;11.40;92.00
31379;DHT22;61664;48.112;11.662;2023-11-18T11:09:20;11.40;91.90
31379;DHT22;61664;48.112;11.662;2023-11-18T11:11:56;11.30;91.90
31379;DHT22;61664;48.112;11.662;2023-11-18T11:14:34;11.30;91.70
31379;DHT22;61664;48.112;11.662;2023-11-18T11:17:13;11.30;91.30
31379;DHT22;61664;48.112;11.662;2023-11-18T11:20:05;11.30;92.20
31379;DHT22;61664;48.112;11.662;2023-11-18T11:23:14;11.20;89.80
31379;DHT22;61664;48.112;11.662;2023-11-18T11:26:10;11.20;89.30
31379;DHT22;61664;48.112;11.662;2023-11-18T11:28:55;11.20;89.90
31379;DHT22;61664;48.112;11.662;2023-11-18T11:31:38;11.20;90.40
31379;DHT22;61664;48.112;11.662;2023-11-18T11:34:17;11.20;90.30
31379;DHT22;61664;48.112;11.662;2023-11-18T11:36:47;11.20;90.20
31379;DHT22;61664;48.112;11.662;2023-11-18T11:39:18;11.20;91.90
31379;DHT22;61664;48.112;11.662;2023-11-18T11:41:56;11.20;91.80
31379;DHT22;61664;48.112;11.662;2023-11-18T11:44:26;11.20;91.20
31379;DHT22;61664;48.112;11.662;2023-11-18T11:46:59;11.20;91.90
31379;DHT22;61664;48.112;11.662;2023-11-18T11:49:44;11.20;91.60
31379;DHT22;61664;48.112;11.662;2023-11-18T11:52:30;11.20;88.30
31379;DHT22;61664;48.112;11.662;2023-11-18T11:55:12;11.10;89.50
31379;DHT22;61664;48.112;11.662;2023-11-18T11:57:52;11.10;89.70
31379;DHT22;61664;48.112;11.662;2023-11-18T12:00:25;11.00;90.00
31379;DHT22;61664;48.112;11.662;2023-11-18T12:03:01;11.00;91.30
31379;DHT22;61664;48.112;11.662;2023-11-18T12:05:31;10.90;91.40
31379;DHT22;61664;48.112;11.662;2023-11-18T12:08:00;10.90;91.50
31379;DHT22;61664;48.112;11.662;2023-11-18T12:10:30;10.90;91.70
31379;DHT22;61664;48.112;11.662;2023-11-18T12:13:08;10.90;91.20
31379;DHT22;61664;48.112;11.662;2023-11-18T12:15:53;11.00;89.00
31379;DHT22;61664;48.112;11.662;2023-11-18T12:18:24;11.00;90.30
31379;DHT22;61664;48.112;11.662;2023-11-18T12:20:52;11.00;89.50
31379;DHT22;61664;48.112;11.662;2023-11-18T12:23:23;11.10;92.60
31379;DHT22;61664;48.112;11.662;2023-11-18T12:25:52;11.10;92.40
31379;DHT22;61664;48.112;11.662;2023-11-18T12:28:28;11.10;92.30
31379;DHT22;61664;48.112;11.662;2023-11-18T12:31:04;11.10;91.00
31379;DHT22;61664;48.112;11.662;2023-11-18T12:39:32;11.20;88.90
31379;DHT22;61664;48.112;11.662;2023-11-18T12:42:42;11.20;89.30
31379;DHT22;61664;48.112;11.662;2023-11-18T12:45:43;11.20;90.00
31379;DHT22;61664;48.112;11.662;2023-11-18T12:48:14;11.30;91.90
31379;DHT22;61664;48.112;11.662;2023-11-18T12:50:42;11.20;90.50
31379;DHT22;61664;48.112;11.662;2023-11-18T12:53:12;11.20;91.70
31379;DHT22;61664;48.112;11.662;2023-11-18T12:55:42;11.20;91.80
31379;DHT22;61664;48.112;11.662;2023-11-18T12:58:09;11.20;92.00
31379;DHT22;61664;48.112;11.662;2023-11-18T13:00:40;11.20;91.90
31379;DHT22;61664;48.112;11.662;2023-11-18T13:03:09;11.30;91.30
31379;DHT22;61664;48.112;11.662;2023-11-18T13:05:41;11.30;91.70
31379;DHT22;61664;48.112;11.662;2023-11-18T13:08:10;11.30;91.10
31379;DHT22;61664;48.112;11.662;2023-11-18T13:10:42;11.30;91.50
31379;DHT22;61664;48.112;11.662;2023-11-18T13:13:11;11.30;91.30
31379;DHT22;61664;48.112;11.662;2023-11-18T13:15:40;11.30;91.30
31379;DHT22;61664;48.112;11.662;2023-11-18T13:18:07;11.30;91.50
31379;DHT22;61664;48.112;11.662;2023-11-18T13:20:38;11.30;91.50
31379;DHT22;61664;48.112;11.662;2023-11-18T13:23:09;11.30;91.60
31379;DHT22;61664;48.112;11.662;2023-11-18T13:25:36;11.40;90.40
31379;DHT22;61664;48.112;11.662;2023-11-18T13:28:08;11.40;91.20
31379;DHT22;61664;48.112;11.662;2023-11-18T13:30:39;11.30;91.00
31379;DHT22;61664;48.112;11.662;2023-11-18T13:33:08;11.30;90.80
31379;DHT22;61664;48.112;11.662;2023-11-18T13:35:36;11.30;90.80
31379;DHT22;61664;48.112;11.662;2023-11-18T13:38:03;11.30;90.60
31379;DHT22;61664;48.112;11.662;2023-11-18T13:40:47;11.30;90.40
31379;DHT22;61664;48.112;11.662;2023-11-18T13:43:15;11.20;84.70
31379;DHT22;61664;48.112;11.662;2023-11-18T13:45:42;11.20;90.30
31379;DHT22;61664;48.112;11.662;2023-11-18T13:48:11;11.10;90.30
31379;DHT22;61664;48.112;11.662;2023-11-18T13:50:41;11.10;89.60
31379;DHT22;61664;48.112;11.662;2023-11-18T13:53:10;11.10;90.10
31379;DHT22;61664;48.112;11.662;2023-11-18T13:55:41;11.00;90.40
31379;DHT22;61664;48.112;11.662;2023-11-18T13:58:10;11.00;90.50
31379;DHT22;61664;48.112;11.662;2023-11-18T14:00:37;11.00;90.70
31379;DHT22;61664;48.112;11.662;2023-11-18T14:03:04;11.00;90.90
31379;DHT22;61664;48.112;11.662;2023-11-18T14:05:33;11.00;90.90
31379;DHT22;61664;48.112;11.662;2023-11-18T14:08:03;11.00;91.00
31379;DHT22;61664;48.112;11.662;2023-11-18T14:10:37;11.00;91.10
31379;DHT22;61664;48.112;11.662;2023-11-18T14:13:06;11.00;91.20
31379;DHT22;61664;48.112;11.662;2023-11-18T14:15:38;10.90;91.00
31379;DHT22;61664;48.112;11.662;2023-11-18T14:18:07;11.00;91.10
31379;DHT22;61664;48.112;11.662;2023-11-18T14:20:36;11.00;91.00
31379;DHT22;61664;48.112;11.662;2023-11-18T14:23:03;11.00;90.90
31379;DHT22;61664;48.112;11.662;2023-11-18T14:25:31;11.00;90.60
31379;DHT22;61664;48.112;11.662;2023-11-18T14:28:01;11.00;90.20
31379;DHT22;61664;48.112;11.662;2023-11-18T14:30:29;11.00;85.20
31379;DHT22;61664;48.112;11.662;2023-11-18T14:32:58;11.00;90.40
31379;DHT22;61664;48.112;11.662;2023-11-18T14:35:25;10.90;90.40
31379;DHT22;61664;48.112;11.662;2023-11-18T14:37:56;10.90;90.10
31379;DHT22;61664;48.112;11.662;2023-11-18T14:40:23;10.90;90.10
31379;DHT22;61664;48.112;11.662;2023-11-18T14:42:51;10.80;90.00
31379;DHT22;61664;48.112;11.662;2023-11-18T14:45:19;10.80;90.00
31379;DHT22;61664;48.112;11.662;2023-11-18T14:47:46;10.80;89.80
31379;DHT22;61664;48.112;11.662;2023-11-18T14:50:19;10.80;89.30
31379;DHT22;61664;48.112;11.662;2023-11-18T14:52:47;10.70;86.80
31379;DHT22;61664;48.112;11.662;2023-11-18T14:55:17;10.70;88.70
31379;DHT22;61664;48.112;11.662;2023-11-18T14:57:45;10.60;84.20
31379;DHT22;61664;48.112;11.662;2023-11-18T15:00:15;10.60;89.00
31379;DHT22;61664;48.112;11.662;2023-11-18T15:02:46;10.50;88.80
31379;DHT22;61664;48.112;11.662;2023-11-18T15:05:15;10.50;88.90
31379;DHT22;61664;48.112;11.662;2023-11-18T15:07:53;10.40;88.80
31379;DHT22;61664;48.112;11.662;2023-11-18T15:10:24;10.30;85.90
31379;DHT22;61664;48.112;11.662;2023-11-18T15:12:54;10.30;88.90
31379;DHT22;61664;48.112;11.662;2023-11-18T15:15:32;10.30;89.50
31379;DHT22;61664;48.112;11.662;2023-11-18T15:18:09;10.20;89.20
31379;DHT22;61664;48.112;11.662;2023-11-18T15:20:41;10.20;86.30
31379;DHT22;61664;48.112;11.662;2023-11-18T15:23:14;10.30;85.40
31379;DHT22;61664;48.112;11.662;2023-11-18T15:25:45;10.30;90.40
31379;DHT22;61664;48.112;11.662;2023-11-18T15:28:12;10.30;90.30
31379;DHT22;61664;48.112;11.662;2023-11-18T15:30:40;10.20;90.30
31379;DHT22;61664;48.112;11.662;2023-11-18T15:33:07;10.20;90.30
31379;DHT22;61664;48.112;11.662;2023-11-18T15:35:36;10.10;90.30
31379;DHT22;61664;48.112;11.662;2023-11-18T15:38:08;10.20;90.30
31379;DHT22;61664;48.112;11.662;2023-11-18T15:40:36;10.10;90.30
31379;DHT22;61664;48.112;11.662;2023-11-18T15:43:04;10.10;90.20
31379;DHT22;61664;48.112;11.662;2023-11-18T15:45:32;10.10;90.20
31379;DHT22;61664;48.112;11.662;2023-11-18T15:48:00;10.10;90.30
31379;DHT22;61664;48.112;11.662;2023-11-18T15:50:27;10.10;90.30
31379;DHT22;61664;48.112;11.662;2023-11-18T15:52:56;10.10;90.40
31379;DHT22;61664;48.112;11.662;2023-11-18T15:55:23;10.10;90.40
31379;DHT22;61664;48.112;11.662;2023-11-18T15:57:52;10.10;90.40
31379;DHT22;61664;48.112;11.662;2023-11-18T16:00:23;10.10;90.00
31379;DHT22;61664;48.112;11.662;2023-11-18T16:02:57;10.10;90.00